sensor_id;sensor_type;location;lat;lon;timestamp;P1;durP1;ratioP1;P2;durP2;ratioP2
56136;SDS011;42008;52.934;5.884;2023-02-03T00:02:15;8.17;;;2.07;;
56136;SDS011;42008;52.934;5.884;2023-02-03T00:04:41;8.97;;;1.67;;
56136;SDS011;42008;52.934;5.884;2023-02-03T00:07:08;9.93;;;2.40;;
56136;SDS011;42008;52.934;5.884;2023-02-03T00:09:35;14.53;;;2.53;;
56136;SDS011;42008;52.934;5.884;2023-02-03T00:12:01;13.27;;;2.20;;
56136;SDS011;42008;52.934;5.884;2023-02-03T00:14:26;13.93;;;2.40;;
56136;SDS011;42008;52.934;5.884;2023-02-03T00:16:52;12.80;;;2.17;;
56136;SDS011;42008;52.934;5.884;2023-02-03T00:19:17;12.37;;;2.23;;
56136;SDS011;42008;52.934;5.884;2023-02-03T00:21:43;15.10;;;2.30;;
56136;SDS011;42008;52.934;5.884;2023-02-03T00:24:09;15.50;;;3.43;;
56136;SDS011;42008;52.934;5.884;2023-02-03T00:26:39;11.73;;;2.30;;
56136;SDS011;42008;52.934;5.884;2023-02-03T00:29:05;12.77;;;2.60;;
56136;SDS011;42008;52.934;5.884;2023-02-03T00:31:31;10.50;;;2.63;;
56136;SDS011;42008;52.934;5.884;2023-02-03T00:33:56;14.13;;;2.60;;
56136;SDS011;42008;52.934;5.884;2023-02-03T00:36:22;14.13;;;3.10;;
56136;SDS011;42008;52.934;5.884;2023-02-03T00:38:49;17.57;;;2.93;;
56136;SDS011;42008;52.934;5.884;2023-02-03T00:41:15;10.97;;;2.63;;
56136;SDS011;42008;52.934;5.884;2023-02-03T00:43:41;19.67;;;3.67;;
56136;SDS011;42008;52.934;5.884;2023-02-03T00:46:07;15.43;;;2.90;;
56136;SDS011;42008;52.934;5.884;2023-02-03T00:48:32;19.53;;;3.07;;
56136;SDS011;42008;52.934;5.884;2023-02-03T00:50:58;21.37;;;3.53;;
56136;SDS011;42008;52.934;5.884;2023-02-03T00:53:23;14.70;;;2.90;;
56136;SDS011;42008;52.934;5.884;2023-02-03T00:55:49;14.30;;;3.07;;
56136;SDS011;42008;52.934;5.884;2023-02-03T00:58:16;15.97;;;3.27;;
56136;SDS011;42008;52.934;5.884;2023-02-03T01:00:41;25.20;;;3.30;;
56136;SDS011;42008;52.934;5.884;2023-02-03T01:03:07;17.60;;;3.60;;
56136;SDS011;42008;52.934;5.884;2023-02-03T01:05:33;18.93;;;3.27;;
56136;SDS011;42008;52.934;5.884;2023-02-03T01:07:59;13.47;;;3.13;;
56136;SDS011;42008;52.934;5.884;2023-02-03T01:10:25;15.97;;;3.20;;
56136;SDS011;42008;52.934;5.884;2023-02-03T01:12:50;12.30;;;3.23;;
56136;SDS011;42008;52.934;5.884;2023-02-03T01:15:16;14.63;;;3.40;;
56136;SDS011;42008;52.934;5.884;2023-02-03T01:17:42;12.90;;;2.93;;
56136;SDS011;42008;52.934;5.884;2023-02-03T01:20:08;15.90;;;3.10;;
56136;SDS011;42008;52.934;5.884;2023-02-03T01:22:36;15.23;;;3.43;;
56136;SDS011;42008;52.934;5.884;2023-02-03T01:25:01;13.50;;;2.53;;
56136;SDS011;42008;52.934;5.884;2023-02-03T01:27:27;14.10;;;2.53;;
56136;SDS011;42008;52.934;5.884;2023-02-03T01:29:53;16.83;;;2.80;;
56136;SDS011;42008;52.934;5.884;2023-02-03T01:32:18;17.07;;;2.87;;
56136;SDS011;42008;52.934;5.884;2023-02-03T01:34:44;15.93;;;3.03;;
56136;SDS011;42008;52.934;5.884;2023-02-03T01:37:10;14.27;;;2.73;;
56136;SDS011;42008;52.934;5.884;2023-02-03T01:39:35;15.17;;;3.20;;
56136;SDS011;42008;52.934;5.884;2023-02-03T01:42:01;12.40;;;2.40;;
56136;SDS011;42008;52.934;5.884;2023-02-03T01:49:48;13.47;;;2.93;;
56136;SDS011;42008;52.934;5.884;2023-02-03T01:52:19;18.00;;;3.27;;
56136;SDS011;42008;52.934;5.884;2023-02-03T01:54:45;14.37;;;2.53;;
56136;SDS011;42008;52.934;5.884;2023-02-03T01:57:21;18.57;;;3.17;;
56136;SDS011;42008;52.934;5.884;2023-02-03T01:59:51;14.33;;;3.10;;
56136;SDS011;42008;52.934;5.884;2023-02-03T02:02:19;14.73;;;3.43;;
56136;SDS011;42008;52.934;5.884;2023-02-03T02:04:53;16.60;;;3.50;;
56136;SDS011;42008;52.934;5.884;2023-02-03T02:07:25;15.57;;;3.10;;
56136;SDS011;42008;52.934;5.884;2023-02-03T02:09:51;14.67;;;3.57;;
56136;SDS011;42008;52.934;5.884;2023-02-03T02:12:18;15.80;;;2.53;;
56136;SDS011;42008;52.934;5.884;2023-02-03T02:14:44;17.10;;;3.57;;
56136;SDS011;42008;52.934;5.884;2023-02-03T02:33:41;16.83;;;3.47;;
56136;SDS011;42008;52.934;5.884;2023-02-03T02:36:23;21.67;;;3.37;;
56136;SDS011;42008;52.934;5.884;2023-02-03T02:42:07;14.88;;;3.22;;
56136;SDS011;42008;52.934;5.884;2023-02-03T02:44:48;20.47;;;4.07;;
56136;SDS011;42008;52.934;5.884;2023-02-03T02:47:18;14.60;;;3.67;;
56136;SDS011;42008;52.934;5.884;2023-02-03T02:52:33;15.07;;;2.97;;
56136;SDS011;42008;52.934;5.884;2023-02-03T02:55:05;20.20;;;3.53;;
56136;SDS011;42008;52.934;5.884;2023-02-03T02:57:40;15.17;;;3.73;;
56136;SDS011;42008;52.934;5.884;2023-02-03T03:00:07;14.53;;;3.10;;
56136;SDS011;42008;52.934;5.884;2023-02-03T03:02:34;14.80;;;3.20;;
56136;SDS011;42008;52.934;5.884;2023-02-03T03:05:00;22.17;;;3.80;;
56136;SDS011;42008;52.934;5.884;2023-02-03T03:07:29;20.70;;;3.80;;
56136;SDS011;42008;52.934;5.884;2023-02-03T03:10:02;14.90;;;3.45;;
56136;SDS011;42008;52.934;5.884;2023-02-03T03:12:35;13.80;;;3.10;;
56136;SDS011;42008;52.934;5.884;2023-02-03T03:15:06;22.08;;;3.33;;
56136;SDS011;42008;52.934;5.884;2023-02-03T03:17:46;16.70;;;3.20;;
56136;SDS011;42008;52.934;5.884;2023-02-03T03:20:17;17.73;;;3.00;;
56136;SDS011;42008;52.934;5.884;2023-02-03T03:22:47;15.70;;;3.77;;
56136;SDS011;42008;52.934;5.884;2023-02-03T03:25:31;18.77;;;3.43;;
56136;SDS011;42008;52.934;5.884;2023-02-03T03:28:04;21.33;;;4.50;;
56136;SDS011;42008;52.934;5.884;2023-02-03T03:30:35;13.47;;;3.23;;
56136;SDS011;42008;52.934;5.884;2023-02-03T03:33:03;20.47;;;3.87;;
56136;SDS011;42008;52.934;5.884;2023-02-03T03:35:33;24.57;;;3.60;;
56136;SDS011;42008;52.934;5.884;2023-02-03T03:38:36;18.30;;;3.37;;
56136;SDS011;42008;52.934;5.884;2023-02-03T03:41:12;18.20;;;3.40;;
56136;SDS011;42008;52.934;5.884;2023-02-03T03:43:45;14.33;;;3.00;;
56136;SDS011;42008;52.934;5.884;2023-02-03T03:46:18;14.10;;;3.27;;
56136;SDS011;42008;52.934;5.884;2023-02-03T03:48:54;18.50;;;3.70;;
56136;SDS011;42008;52.934;5.884;2023-02-03T03:51:32;19.43;;;3.20;;
56136;SDS011;42008;52.934;5.884;2023-02-03T03:54:10;18.43;;;3.30;;
56136;SDS011;42008;52.934;5.884;2023-02-03T03:56:41;19.37;;;3.90;;
56136;SDS011;42008;52.934;5.884;2023-02-03T03:59:31;17.43;;;3.77;;
56136;SDS011;42008;52.934;5.884;2023-02-03T04:02:01;17.60;;;3.70;;
56136;SDS011;42008;52.934;5.884;2023-02-03T04:04:28;13.60;;;3.10;;
56136;SDS011;42008;52.934;5.884;2023-02-03T04:06:56;13.67;;;3.17;;
56136;SDS011;42008;52.934;5.884;2023-02-03T04:09:22;19.10;;;3.23;;
56136;SDS011;42008;52.934;5.884;2023-02-03T04:11:48;15.40;;;3.10;;
56136;SDS011;42008;52.934;5.884;2023-02-03T04:14:26;20.03;;;3.53;;
56136;SDS011;42008;52.934;5.884;2023-02-03T04:16:54;20.63;;;3.60;;
56136;SDS011;42008;52.934;5.884;2023-02-03T04:19:20;19.27;;;3.27;;
56136;SDS011;42008;52.934;5.884;2023-02-03T04:21:45;24.47;;;3.60;;
56136;SDS011;42008;52.934;5.884;2023-02-03T04:24:11;19.57;;;3.23;;
56136;SDS011;42008;52.934;5.884;2023-02-03T04:26:37;19.93;;;3.33;;
56136;SDS011;42008;52.934;5.884;2023-02-03T04:29:03;16.87;;;3.10;;
56136;SDS011;42008;52.934;5.884;2023-02-03T04:31:28;20.97;;;4.00;;
56136;SDS011;42008;52.934;5.884;2023-02-03T04:33:54;18.73;;;3.17;;
56136;SDS011;42008;52.934;5.884;2023-02-03T04:36:19;14.93;;;2.80;;
56136;SDS011;42008;52.934;5.884;2023-02-03T04:38:46;22.10;;;3.40;;
56136;SDS011;42008;52.934;5.884;2023-02-03T04:41:13;20.13;;;3.77;;
56136;SDS011;42008;52.934;5.884;2023-02-03T04:43:39;22.57;;;3.10;;
56136;SDS011;42008;52.934;5.884;2023-02-03T04:46:04;16.67;;;3.73;;
56136;SDS011;42008;52.934;5.884;2023-02-03T04:48:30;15.10;;;2.83;;
56136;SDS011;42008;52.934;5.884;2023-02-03T04:50:59;19.03;;;3.67;;
56136;SDS011;42008;52.934;5.884;2023-02-03T04:53:26;19.80;;;3.83;;
56136;SDS011;42008;52.934;5.884;2023-02-03T04:55:52;20.63;;;3.53;;
56136;SDS011;42008;52.934;5.884;2023-02-03T04:58:17;20.33;;;4.00;;
56136;SDS011;42008;52.934;5.884;2023-02-03T05:00:43;22.97;;;4.17;;
56136;SDS011;42008;52.934;5.884;2023-02-03T05:03:08;21.13;;;3.17;;
56136;SDS011;42008;52.934;5.884;2023-02-03T05:05:34;21.07;;;4.40;;
56136;SDS011;42008;52.934;5.884;2023-02-03T05:07:59;17.33;;;3.13;;
56136;SDS011;42008;52.934;5.884;2023-02-03T05:10:25;21.90;;;3.37;;
56136;SDS011;42008;52.934;5.884;2023-02-03T05:12:50;18.80;;;3.53;;
56136;SDS011;42008;52.934;5.884;2023-02-03T05:15:16;22.37;;;3.77;;
56136;SDS011;42008;52.934;5.884;2023-02-03T05:17:42;20.83;;;3.67;;
56136;SDS011;42008;52.934;5.884;2023-02-03T05:20:07;15.83;;;3.10;;
56136;SDS011;42008;52.934;5.884;2023-02-03T05:22:34;19.43;;;3.40;;
56136;SDS011;42008;52.934;5.884;2023-02-03T05:25:00;19.23;;;3.70;;
56136;SDS011;42008;52.934;5.884;2023-02-03T05:27:26;16.90;;;3.43;;
56136;SDS011;42008;52.934;5.884;2023-02-03T05:29:51;15.57;;;3.53;;
56136;SDS011;42008;52.934;5.884;2023-02-03T05:32:17;16.87;;;3.27;;
56136;SDS011;42008;52.934;5.884;2023-02-03T05:34:42;16.73;;;3.60;;
56136;SDS011;42008;52.934;5.884;2023-02-03T05:37:09;22.27;;;4.13;;
56136;SDS011;42008;52.934;5.884;2023-02-03T05:39:34;18.83;;;2.73;;
56136;SDS011;42008;52.934;5.884;2023-02-03T05:42:00;19.90;;;3.60;;
56136;SDS011;42008;52.934;5.884;2023-02-03T05:44:27;17.07;;;3.13;;
56136;SDS011;42008;52.934;5.884;2023-02-03T05:46:54;19.60;;;3.83;;
56136;SDS011;42008;52.934;5.884;2023-02-03T05:49:21;20.70;;;3.17;;
56136;SDS011;42008;52.934;5.884;2023-02-03T05:51:48;18.00;;;3.57;;
56136;SDS011;42008;52.934;5.884;2023-02-03T05:54:14;16.47;;;4.10;;
56136;SDS011;42008;52.934;5.884;2023-02-03T05:56:40;20.87;;;4.17;;
56136;SDS011;42008;52.934;5.884;2023-02-03T05:59:06;15.17;;;3.23;;
56136;SDS011;42008;52.934;5.884;2023-02-03T06:01:32;20.80;;;3.83;;
56136;SDS011;42008;52.934;5.884;2023-02-03T06:03:57;15.13;;;3.93;;
56136;SDS011;42008;52.934;5.884;2023-02-03T06:06:24;25.43;;;4.03;;
56136;SDS011;42008;52.934;5.884;2023-02-03T06:08:49;21.17;;;4.50;;
56136;SDS011;42008;52.934;5.884;2023-02-03T06:11:20;25.50;;;4.23;;
56136;SDS011;42008;52.934;5.884;2023-02-03T06:13:48;18.83;;;3.73;;
56136;SDS011;42008;52.934;5.884;2023-02-03T06:16:14;18.90;;;3.57;;
56136;SDS011;42008;52.934;5.884;2023-02-03T06:18:40;21.47;;;4.30;;
56136;SDS011;42008;52.934;5.884;2023-02-03T06:21:05;18.20;;;3.63;;
56136;SDS011;42008;52.934;5.884;2023-02-03T06:23:31;20.60;;;4.60;;
56136;SDS011;42008;52.934;5.884;2023-02-03T06:25:57;17.77;;;3.60;;
56136;SDS011;42008;52.934;5.884;2023-02-03T06:28:24;22.57;;;4.43;;
56136;SDS011;42008;52.934;5.884;2023-02-03T06:30:50;21.93;;;3.50;;
56136;SDS011;42008;52.934;5.884;2023-02-03T06:33:17;19.80;;;3.73;;
56136;SDS011;42008;52.934;5.884;2023-02-03T06:35:46;22.40;;;3.67;;
56136;SDS011;42008;52.934;5.884;2023-02-03T06:38:11;18.67;;;3.20;;
56136;SDS011;42008;52.934;5.884;2023-02-03T06:40:37;20.73;;;4.47;;
56136;SDS011;42008;52.934;5.884;2023-02-03T06:43:02;19.47;;;4.00;;
56136;SDS011;42008;52.934;5.884;2023-02-03T06:45:28;18.70;;;4.33;;
56136;SDS011;42008;52.934;5.884;2023-02-03T06:47:54;19.80;;;4.00;;
56136;SDS011;42008;52.934;5.884;2023-02-03T06:50:20;16.67;;;4.40;;
56136;SDS011;42008;52.934;5.884;2023-02-03T06:52:47;15.30;;;3.40;;
56136;SDS011;42008;52.934;5.884;2023-02-03T06:55:13;17.57;;;3.80;;
56136;SDS011;42008;52.934;5.884;2023-02-03T06:57:43;20.23;;;3.60;;
56136;SDS011;42008;52.934;5.884;2023-02-03T07:00:09;23.00;;;4.30;;
56136;SDS011;42008;52.934;5.884;2023-02-03T07:02:37;19.57;;;3.70;;
56136;SDS011;42008;52.934;5.884;2023-02-03T07:05:03;20.63;;;4.87;;
56136;SDS011;42008;52.934;5.884;2023-02-03T07:07:28;16.93;;;3.77;;
56136;SDS011;42008;52.934;5.884;2023-02-03T07:09:56;14.90;;;3.80;;
56136;SDS011;42008;52.934;5.884;2023-02-03T07:12:21;25.97;;;3.77;;
56136;SDS011;42008;52.934;5.884;2023-02-03T07:14:47;18.70;;;4.03;;
56136;SDS011;42008;52.934;5.884;2023-02-03T07:17:12;16.53;;;3.57;;
56136;SDS011;42008;52.934;5.884;2023-02-03T07:19:38;16.37;;;4.20;;
56136;SDS011;42008;52.934;5.884;2023-02-03T07:22:04;21.97;;;3.77;;
56136;SDS011;42008;52.934;5.884;2023-02-03T07:24:29;19.67;;;4.10;;
56136;SDS011;42008;52.934;5.884;2023-02-03T07:26:55;23.87;;;4.07;;
56136;SDS011;42008;52.934;5.884;2023-02-03T07:29:20;27.47;;;4.70;;
56136;SDS011;42008;52.934;5.884;2023-02-03T07:31:46;21.60;;;4.60;;
56136;SDS011;42008;52.934;5.884;2023-02-03T07:34:11;21.50;;;4.10;;
56136;SDS011;42008;52.934;5.884;2023-02-03T07:36:37;22.03;;;4.93;;
56136;SDS011;42008;52.934;5.884;2023-02-03T07:39:03;25.90;;;5.57;;
56136;SDS011;42008;52.934;5.884;2023-02-03T07:41:28;21.10;;;4.10;;
56136;SDS011;42008;52.934;5.884;2023-02-03T07:43:54;26.20;;;5.87;;
56136;SDS011;42008;52.934;5.884;2023-02-03T07:46:19;34.23;;;4.87;;
56136;SDS011;42008;52.934;5.884;2023-02-03T07:48:45;27.67;;;4.47;;
56136;SDS011;42008;52.934;5.884;2023-02-03T07:51:10;26.27;;;5.43;;
56136;SDS011;42008;52.934;5.884;2023-02-03T07:53:36;26.40;;;5.33;;
56136;SDS011;42008;52.934;5.884;2023-02-03T07:56:02;27.63;;;5.33;;
56136;SDS011;42008;52.934;5.884;2023-02-03T07:58:29;27.43;;;4.37;;
56136;SDS011;42008;52.934;5.884;2023-02-03T08:00:55;29.67;;;5.23;;
56136;SDS011;42008;52.934;5.884;2023-02-03T08:03:21;28.67;;;4.43;;
56136;SDS011;42008;52.934;5.884;2023-02-03T08:05:47;28.17;;;5.40;;
56136;SDS011;42008;52.934;5.884;2023-02-03T08:08:14;29.53;;;5.37;;
56136;SDS011;42008;52.934;5.884;2023-02-03T08:10:39;24.97;;;4.37;;
56136;SDS011;42008;52.934;5.884;2023-02-03T08:13:05;27.33;;;4.97;;
56136;SDS011;42008;52.934;5.884;2023-02-03T08:15:31;25.60;;;5.00;;
56136;SDS011;42008;52.934;5.884;2023-02-03T08:17:56;31.10;;;6.47;;
56136;SDS011;42008;52.934;5.884;2023-02-03T08:20:22;30.07;;;4.50;;
56136;SDS011;42008;52.934;5.884;2023-02-03T08:22:48;28.93;;;6.23;;
56136;SDS011;42008;52.934;5.884;2023-02-03T08:25:13;31.80;;;6.97;;
56136;SDS011;42008;52.934;5.884;2023-02-03T08:27:39;25.80;;;4.97;;
56136;SDS011;42008;52.934;5.884;2023-02-03T08:30:06;28.87;;;6.80;;
56136;SDS011;42008;52.934;5.884;2023-02-03T08:32:33;32.40;;;5.27;;
56136;SDS011;42008;52.934;5.884;2023-02-03T08:34:59;28.70;;;5.03;;
56136;SDS011;42008;52.934;5.884;2023-02-03T08:37:25;31.40;;;5.67;;
56136;SDS011;42008;52.934;5.884;2023-02-03T08:39:50;31.80;;;6.20;;
56136;SDS011;42008;52.934;5.884;2023-02-03T08:42:17;31.77;;;5.97;;
56136;SDS011;42008;52.934;5.884;2023-02-03T08:44:42;24.70;;;5.00;;
56136;SDS011;42008;52.934;5.884;2023-02-03T08:47:08;30.27;;;5.40;;
56136;SDS011;42008;52.934;5.884;2023-02-03T08:49:35;21.90;;;5.23;;
56136;SDS011;42008;52.934;5.884;2023-02-03T08:52:03;25.17;;;5.30;;
56136;SDS011;42008;52.934;5.884;2023-02-03T08:54:30;25.30;;;5.53;;
56136;SDS011;42008;52.934;5.884;2023-02-03T08:56:56;21.67;;;4.67;;
56136;SDS011;42008;52.934;5.884;2023-02-03T08:59:22;22.20;;;4.37;;
56136;SDS011;42008;52.934;5.884;2023-02-03T09:01:48;24.50;;;5.37;;
56136;SDS011;42008;52.934;5.884;2023-02-03T09:04:14;20.30;;;4.63;;
56136;SDS011;42008;52.934;5.884;2023-02-03T09:06:44;24.40;;;4.50;;
56136;SDS011;42008;52.934;5.884;2023-02-03T09:09:12;27.40;;;5.30;;
56136;SDS011;42008;52.934;5.884;2023-02-03T09:11:39;21.80;;;4.27;;
56136;SDS011;42008;52.934;5.884;2023-02-03T09:14:05;29.70;;;5.80;;
56136;SDS011;42008;52.934;5.884;2023-02-03T09:16:31;28.57;;;4.83;;
56136;SDS011;42008;52.934;5.884;2023-02-03T09:18:57;22.90;;;4.73;;
56136;SDS011;42008;52.934;5.884;2023-02-03T09:21:23;27.40;;;4.40;;
56136;SDS011;42008;52.934;5.884;2023-02-03T09:23:48;27.40;;;5.27;;
56136;SDS011;42008;52.934;5.884;2023-02-03T09:26:15;25.93;;;5.17;;
56136;SDS011;42008;52.934;5.884;2023-02-03T09:28:41;28.07;;;5.10;;
56136;SDS011;42008;52.934;5.884;2023-02-03T09:31:08;27.20;;;5.57;;
56136;SDS011;42008;52.934;5.884;2023-02-03T09:33:35;30.97;;;6.20;;
56136;SDS011;42008;52.934;5.884;2023-02-03T09:36:01;27.00;;;5.30;;
56136;SDS011;42008;52.934;5.884;2023-02-03T09:38:27;32.67;;;6.43;;
56136;SDS011;42008;52.934;5.884;2023-02-03T09:40:58;28.07;;;5.53;;
56136;SDS011;42008;52.934;5.884;2023-02-03T09:46:27;31.67;;;5.67;;
56136;SDS011;42008;52.934;5.884;2023-02-03T09:48:59;29.60;;;6.00;;
56136;SDS011;42008;52.934;5.884;2023-02-03T09:51:36;30.60;;;5.30;;
56136;SDS011;42008;52.934;5.884;2023-02-03T09:54:33;30.00;;;6.50;;
56136;SDS011;42008;52.934;5.884;2023-02-03T09:57:12;33.73;;;5.90;;
56136;SDS011;42008;52.934;5.884;2023-02-03T10:00:01;38.10;;;6.13;;
56136;SDS011;42008;52.934;5.884;2023-02-03T10:05:20;34.20;;;6.87;;
56136;SDS011;42008;52.934;5.884;2023-02-03T10:19:21;30.87;;;6.40;;
56136;SDS011;42008;52.934;5.884;2023-02-03T10:21:51;42.80;;;7.57;;
56136;SDS011;42008;52.934;5.884;2023-02-03T10:24:26;44.00;;;7.27;;
56136;SDS011;42008;52.934;5.884;2023-02-03T10:26:58;39.00;;;6.33;;
56136;SDS011;42008;52.934;5.884;2023-02-03T10:29:33;39.10;;;6.67;;
56136;SDS011;42008;52.934;5.884;2023-02-03T10:32:04;41.17;;;8.13;;
56136;SDS011;42008;52.934;5.884;2023-02-03T10:34:36;40.37;;;7.23;;
56136;SDS011;42008;52.934;5.884;2023-02-03T10:37:16;43.63;;;7.27;;
56136;SDS011;42008;52.934;5.884;2023-02-03T10:39:52;43.37;;;7.07;;
56136;SDS011;42008;52.934;5.884;2023-02-03T10:42:20;39.77;;;7.10;;
56136;SDS011;42008;52.934;5.884;2023-02-03T10:44:48;43.27;;;7.53;;
56136;SDS011;42008;52.934;5.884;2023-02-03T10:47:31;47.05;;;7.45;;
56136;SDS011;42008;52.934;5.884;2023-02-03T10:50:04;43.87;;;8.43;;
56136;SDS011;42008;52.934;5.884;2023-02-03T10:52:37;46.83;;;8.03;;
56136;SDS011;42008;52.934;5.884;2023-02-03T10:55:07;47.70;;;7.63;;
56136;SDS011;42008;52.934;5.884;2023-02-03T10:57:46;41.90;;;7.60;;
56136;SDS011;42008;52.934;5.884;2023-02-03T11:00:22;43.40;;;7.07;;
56136;SDS011;42008;52.934;5.884;2023-02-03T11:03:15;50.93;;;9.07;;
56136;SDS011;42008;52.934;5.884;2023-02-03T11:05:48;51.20;;;8.70;;
56136;SDS011;42008;52.934;5.884;2023-02-03T11:08:29;50.75;;;7.28;;
56136;SDS011;42008;52.934;5.884;2023-02-03T11:11:00;46.23;;;7.70;;
56136;SDS011;42008;52.934;5.884;2023-02-03T11:13:27;46.58;;;7.38;;
56136;SDS011;42008;52.934;5.884;2023-02-03T11:20:55;45.87;;;7.70;;
56136;SDS011;42008;52.934;5.884;2023-02-03T11:23:22;44.90;;;7.77;;
56136;SDS011;42008;52.934;5.884;2023-02-03T11:25:47;37.97;;;7.33;;
56136;SDS011;42008;52.934;5.884;2023-02-03T11:28:13;43.30;;;8.23;;
56136;SDS011;42008;52.934;5.884;2023-02-03T11:30:39;42.20;;;7.57;;
56136;SDS011;42008;52.934;5.884;2023-02-03T11:33:15;46.97;;;8.43;;
56136;SDS011;42008;52.934;5.884;2023-02-03T11:35:59;42.77;;;7.73;;
56136;SDS011;42008;52.934;5.884;2023-02-03T11:38:27;46.70;;;9.10;;
56136;SDS011;42008;52.934;5.884;2023-02-03T11:40:57;42.00;;;7.73;;
56136;SDS011;42008;52.934;5.884;2023-02-03T11:43:25;54.63;;;9.13;;
56136;SDS011;42008;52.934;5.884;2023-02-03T11:45:53;47.27;;;8.60;;
56136;SDS011;42008;52.934;5.884;2023-02-03T11:48:42;48.90;;;7.50;;
56136;SDS011;42008;52.934;5.884;2023-02-03T11:56:37;44.27;;;6.93;;
56136;SDS011;42008;52.934;5.884;2023-02-03T12:10:25;51.93;;;9.90;;
56136;SDS011;42008;52.934;5.884;2023-02-03T12:21:29;64.17;;;10.00;;
56136;SDS011;42008;52.934;5.884;2023-02-03T12:29:53;46.77;;;8.20;;
56136;SDS011;42008;52.934;5.884;2023-02-03T12:35:25;52.20;;;8.47;;
56136;SDS011;42008;52.934;5.884;2023-02-03T12:37:55;57.60;;;10.77;;
56136;SDS011;42008;52.934;5.884;2023-02-03T12:40:35;44.93;;;10.27;;
56136;SDS011;42008;52.934;5.884;2023-02-03T12:45:30;47.07;;;8.73;;
56136;SDS011;42008;52.934;5.884;2023-02-03T12:48:09;47.70;;;9.17;;
56136;SDS011;42008;52.934;5.884;2023-02-03T12:50:41;49.03;;;9.50;;
56136;SDS011;42008;52.934;5.884;2023-02-03T12:53:16;56.27;;;9.50;;
56136;SDS011;42008;52.934;5.884;2023-02-03T12:56:06;51.17;;;8.90;;
56136;SDS011;42008;52.934;5.884;2023-02-03T12:58:39;59.60;;;9.67;;
56136;SDS011;42008;52.934;5.884;2023-02-03T13:03:50;49.07;;;8.83;;
56136;SDS011;42008;52.934;5.884;2023-02-03T13:06:35;52.80;;;10.10;;
56136;SDS011;42008;52.934;5.884;2023-02-03T13:11:59;57.87;;;11.47;;
56136;SDS011;42008;52.934;5.884;2023-02-03T13:14:31;49.13;;;8.50;;
56136;SDS011;42008;52.934;5.884;2023-02-03T13:17:12;54.40;;;9.90;;
56136;SDS011;42008;52.934;5.884;2023-02-03T13:19:50;54.17;;;10.10;;
56136;SDS011;42008;52.934;5.884;2023-02-03T13:22:19;52.50;;;8.97;;
56136;SDS011;42008;52.934;5.884;2023-02-03T13:28:11;50.43;;;9.23;;
56136;SDS011;42008;52.934;5.884;2023-02-03T13:37:05;46.27;;;9.07;;
56136;SDS011;42008;52.934;5.884;2023-02-03T13:39:40;48.37;;;9.37;;
56136;SDS011;42008;52.934;5.884;2023-02-03T13:44:52;51.33;;;9.67;;
56136;SDS011;42008;52.934;5.884;2023-02-03T13:47:39;44.20;;;8.37;;
56136;SDS011;42008;52.934;5.884;2023-02-03T13:50:21;60.92;;;9.80;;
56136;SDS011;42008;52.934;5.884;2023-02-03T13:52:59;46.30;;;8.87;;
56136;SDS011;42008;52.934;5.884;2023-02-03T13:55:41;49.97;;;8.60;;
56136;SDS011;42008;52.934;5.884;2023-02-03T13:58:20;54.63;;;9.03;;
56136;SDS011;42008;52.934;5.884;2023-02-03T14:03:18;50.40;;;8.73;;
56136;SDS011;42008;52.934;5.884;2023-02-03T14:06:03;53.83;;;9.37;;
56136;SDS011;42008;52.934;5.884;2023-02-03T14:21:57;46.72;;;8.73;;
56136;SDS011;42008;52.934;5.884;2023-02-03T14:24:40;54.65;;;10.38;;
56136;SDS011;42008;52.934;5.884;2023-02-03T14:27:27;46.93;;;8.87;;
56136;SDS011;42008;52.934;5.884;2023-02-03T14:30:10;49.00;;;8.97;;
56136;SDS011;42008;52.934;5.884;2023-02-03T14:32:50;42.60;;;7.57;;
56136;SDS011;42008;52.934;5.884;2023-02-03T14:35:28;56.90;;;9.47;;
56136;SDS011;42008;52.934;5.884;2023-02-03T14:37:59;49.87;;;9.20;;
56136;SDS011;42008;52.934;5.884;2023-02-03T14:40:39;57.67;;;9.97;;
56136;SDS011;42008;52.934;5.884;2023-02-03T15:00:45;46.60;;;8.47;;
56136;SDS011;42008;52.934;5.884;2023-02-03T15:07:55;47.97;;;8.20;;
56136;SDS011;42008;52.934;5.884;2023-02-03T15:10:22;43.07;;;8.50;;
56136;SDS011;42008;52.934;5.884;2023-02-03T15:12:51;44.57;;;10.03;;
56136;SDS011;42008;52.934;5.884;2023-02-03T15:15:19;46.40;;;7.93;;
56136;SDS011;42008;52.934;5.884;2023-02-03T15:17:48;50.50;;;8.17;;
56136;SDS011;42008;52.934;5.884;2023-02-03T15:20:39;46.73;;;8.03;;
56136;SDS011;42008;52.934;5.884;2023-02-03T15:23:27;49.07;;;8.40;;
56136;SDS011;42008;52.934;5.884;2023-02-03T15:25:55;43.27;;;8.27;;
56136;SDS011;42008;52.934;5.884;2023-02-03T15:28:35;55.60;;;9.67;;
56136;SDS011;42008;52.934;5.884;2023-02-03T15:31:05;50.57;;;8.50;;
56136;SDS011;42008;52.934;5.884;2023-02-03T15:33:33;48.45;;;8.98;;
56136;SDS011;42008;52.934;5.884;2023-02-03T15:36:06;44.30;;;8.37;;
56136;SDS011;42008;52.934;5.884;2023-02-03T15:38:40;55.67;;;8.27;;
56136;SDS011;42008;52.934;5.884;2023-02-03T15:41:15;44.37;;;8.43;;
56136;SDS011;42008;52.934;5.884;2023-02-03T15:43:46;53.47;;;9.57;;
56136;SDS011;42008;52.934;5.884;2023-02-03T15:48:51;54.07;;;8.90;;
56136;SDS011;42008;52.934;5.884;2023-02-03T15:51:33;51.72;;;8.50;;
56136;SDS011;42008;52.934;5.884;2023-02-03T15:57:02;51.83;;;9.20;;
56136;SDS011;42008;52.934;5.884;2023-02-03T15:59:35;63.27;;;9.37;;
56136;SDS011;42008;52.934;5.884;2023-02-03T16:02:13;55.85;;;10.70;;
56136;SDS011;42008;52.934;5.884;2023-02-03T16:04:42;51.97;;;8.50;;
56136;SDS011;42008;52.934;5.884;2023-02-03T16:07:19;69.20;;;9.97;;
56136;SDS011;42008;52.934;5.884;2023-02-03T16:09:53;51.83;;;9.23;;
56136;SDS011;42008;52.934;5.884;2023-02-03T16:12:32;59.77;;;9.23;;
56136;SDS011;42008;52.934;5.884;2023-02-03T16:14:59;57.87;;;9.97;;
56136;SDS011;42008;52.934;5.884;2023-02-03T16:17:30;64.87;;;10.23;;
56136;SDS011;42008;52.934;5.884;2023-02-03T16:22:36;52.70;;;9.70;;
56136;SDS011;42008;52.934;5.884;2023-02-03T16:25:19;62.23;;;10.50;;
56136;SDS011;42008;52.934;5.884;2023-02-03T16:27:56;55.80;;;9.47;;
56136;SDS011;42008;52.934;5.884;2023-02-03T16:30:57;74.43;;;10.97;;
56136;SDS011;42008;52.934;5.884;2023-02-03T16:33:44;68.65;;;11.30;;
56136;SDS011;42008;52.934;5.884;2023-02-03T16:36:32;72.93;;;10.87;;
56136;SDS011;42008;52.934;5.884;2023-02-03T16:39:17;66.90;;;9.93;;
56136;SDS011;42008;52.934;5.884;2023-02-03T16:42:06;71.97;;;11.00;;
56136;SDS011;42008;52.934;5.884;2023-02-03T16:44:56;67.90;;;10.53;;
56136;SDS011;42008;52.934;5.884;2023-02-03T16:47:40;69.53;;;10.77;;
56136;SDS011;42008;52.934;5.884;2023-02-03T16:50:26;72.23;;;10.60;;
56136;SDS011;42008;52.934;5.884;2023-02-03T16:53:16;67.40;;;10.27;;
56136;SDS011;42008;52.934;5.884;2023-02-03T16:55:52;64.10;;;10.27;;
56136;SDS011;42008;52.934;5.884;2023-02-03T16:58:20;75.53;;;12.77;;
56136;SDS011;42008;52.934;5.884;2023-02-03T17:00:46;77.57;;;11.40;;
56136;SDS011;42008;52.934;5.884;2023-02-03T17:03:17;83.17;;;12.37;;
56136;SDS011;42008;52.934;5.884;2023-02-03T17:05:45;71.03;;;11.13;;
56136;SDS011;42008;52.934;5.884;2023-02-03T17:08:12;82.13;;;12.00;;
56136;SDS011;42008;52.934;5.884;2023-02-03T17:10:39;80.90;;;10.83;;
56136;SDS011;42008;52.934;5.884;2023-02-03T17:13:06;70.80;;;10.10;;
56136;SDS011;42008;52.934;5.884;2023-02-03T17:15:33;70.37;;;10.40;;
56136;SDS011;42008;52.934;5.884;2023-02-03T17:18:03;72.00;;;10.67;;
56136;SDS011;42008;52.934;5.884;2023-02-03T17:20:28;61.40;;;11.43;;
56136;SDS011;42008;52.934;5.884;2023-02-03T17:22:54;68.17;;;10.93;;